sensor_id;sensor_type;location;lat;lon;timestamp;P1;durP1;ratioP1;P2;durP2;ratioP2
59181;SDS011;45293;44.606;21.176;2022-10-15T00:00:27;28.80;;;10.70;;
59181;SDS011;45293;44.606;21.176;2022-10-15T00:02:53;19.17;;;8.82;;
59181;SDS011;45293;44.606;21.176;2022-10-15T00:05:19;20.90;;;8.38;;
59181;SDS011;45293;44.606;21.176;2022-10-15T00:07:45;21.83;;;9.38;;
59181;SDS011;45293;44.606;21.176;2022-10-15T00:10:12;25.10;;;8.40;;
59181;SDS011;45293;44.606;21.176;2022-10-15T00:12:38;20.58;;;8.82;;
59181;SDS011;45293;44.606;21.176;2022-10-15T00:15:05;24.02;;;8.70;;
59181;SDS011;45293;44.606;21.176;2022-10-15T00:17:32;21.80;;;8.07;;
59181;SDS011;45293;44.606;21.176;2022-10-15T00:19:58;23.40;;;8.90;;
59181;SDS011;45293;44.606;21.176;2022-10-15T00:22:24;18.38;;;8.52;;
59181;SDS011;45293;44.606;21.176;2022-10-15T00:24:50;16.00;;;8.75;;
59181;SDS011;45293;44.606;21.176;2022-10-15T00:27:16;15.05;;;7.70;;
59181;SDS011;45293;44.606;21.176;2022-10-15T00:29:42;14.90;;;7.45;;
59181;SDS011;45293;44.606;21.176;2022-10-15T00:32:08;17.05;;;8.18;;
59181;SDS011;45293;44.606;21.176;2022-10-15T00:34:34;18.30;;;8.65;;
59181;SDS011;45293;44.606;21.176;2022-10-15T00:37:00;15.55;;;7.80;;
59181;SDS011;45293;44.606;21.176;2022-10-15T00:39:26;14.68;;;7.43;;
59181;SDS011;45293;44.606;21.176;2022-10-15T00:41:53;12.77;;;7.20;;
59181;SDS011;45293;44.606;21.176;2022-10-15T00:52:36;14.00;;;6.78;;
59181;SDS011;45293;44.606;21.176;2022-10-15T00:55:13;14.98;;;6.22;;
59181;SDS011;45293;44.606;21.176;2022-10-15T00:57:40;15.43;;;6.18;;
59181;SDS011;45293;44.606;21.176;2022-10-15T01:00:09;13.82;;;6.45;;
59181;SDS011;45293;44.606;21.176;2022-10-15T01:02:37;11.10;;;5.82;;
59181;SDS011;45293;44.606;21.176;2022-10-15T01:05:03;15.40;;;6.60;;
59181;SDS011;45293;44.606;21.176;2022-10-15T01:07:29;12.35;;;6.32;;
59181;SDS011;45293;44.606;21.176;2022-10-15T01:09:55;15.77;;;6.55;;
59181;SDS011;45293;44.606;21.176;2022-10-15T01:14:57;15.38;;;6.30;;
59181;SDS011;45293;44.606;21.176;2022-10-15T01:28:33;12.88;;;6.45;;
59181;SDS011;45293;44.606;21.176;2022-10-15T01:31:09;17.15;;;7.13;;
59181;SDS011;45293;44.606;21.176;2022-10-15T01:33:41;12.05;;;6.20;;
59181;SDS011;45293;44.606;21.176;2022-10-15T01:36:15;13.50;;;5.80;;
59181;SDS011;45293;44.606;21.176;2022-10-15T01:41:10;11.05;;;6.15;;
59181;SDS011;45293;44.606;21.176;2022-10-15T01:46:06;11.23;;;5.50;;
59181;SDS011;45293;44.606;21.176;2022-10-15T01:48:33;11.52;;;5.97;;
59181;SDS011;45293;44.606;21.176;2022-10-15T01:51:01;14.38;;;5.90;;
59181;SDS011;45293;44.606;21.176;2022-10-15T01:53:29;15.45;;;5.55;;
59181;SDS011;45293;44.606;21.176;2022-10-15T01:56:00;11.23;;;6.07;;
59181;SDS011;45293;44.606;21.176;2022-10-15T01:58:28;15.43;;;6.22;;
59181;SDS011;45293;44.606;21.176;2022-10-15T02:00:55;12.10;;;6.28;;
59181;SDS011;45293;44.606;21.176;2022-10-15T02:03:21;13.38;;;6.13;;
59181;SDS011;45293;44.606;21.176;2022-10-15T02:05:59;11.25;;;5.78;;
59181;SDS011;45293;44.606;21.176;2022-10-15T02:08:36;14.35;;;5.90;;
59181;SDS011;45293;44.606;21.176;2022-10-15T02:11:04;15.98;;;6.03;;
59181;SDS011;45293;44.606;21.176;2022-10-15T02:13:33;15.90;;;7.30;;
59181;SDS011;45293;44.606;21.176;2022-10-15T02:16:22;11.88;;;6.55;;
59181;SDS011;45293;44.606;21.176;2022-10-15T02:21:23;11.05;;;5.68;;
59181;SDS011;45293;44.606;21.176;2022-10-15T02:23:52;16.45;;;5.97;;
59181;SDS011;45293;44.606;21.176;2022-10-15T02:26:18;12.07;;;6.40;;
59181;SDS011;45293;44.606;21.176;2022-10-15T02:28:49;12.80;;;6.78;;
59181;SDS011;45293;44.606;21.176;2022-10-15T02:31:15;16.73;;;6.93;;
59181;SDS011;45293;44.606;21.176;2022-10-15T02:33:43;18.00;;;7.95;;
59181;SDS011;45293;44.606;21.176;2022-10-15T02:36:09;19.25;;;8.52;;
59181;SDS011;45293;44.606;21.176;2022-10-15T02:38:36;17.65;;;9.02;;
59181;SDS011;45293;44.606;21.176;2022-10-15T02:41:03;17.33;;;8.20;;
59181;SDS011;45293;44.606;21.176;2022-10-15T02:43:29;13.63;;;7.40;;
59181;SDS011;45293;44.606;21.176;2022-10-15T02:45:55;18.90;;;9.15;;
59181;SDS011;45293;44.606;21.176;2022-10-15T02:48:21;14.82;;;6.82;;
59181;SDS011;45293;44.606;21.176;2022-10-15T02:50:47;13.75;;;7.80;;
59181;SDS011;45293;44.606;21.176;2022-10-15T02:53:13;15.05;;;7.45;;
59181;SDS011;45293;44.606;21.176;2022-10-15T02:55:39;15.60;;;8.65;;
59181;SDS011;45293;44.606;21.176;2022-10-15T02:58:05;19.00;;;8.88;;
59181;SDS011;45293;44.606;21.176;2022-10-15T03:00:31;16.08;;;7.95;;
59181;SDS011;45293;44.606;21.176;2022-10-15T03:02:57;14.90;;;8.32;;
59181;SDS011;45293;44.606;21.176;2022-10-15T03:05:24;18.70;;;9.15;;
59181;SDS011;45293;44.606;21.176;2022-10-15T03:07:50;10.73;;;7.38;;
59181;SDS011;45293;44.606;21.176;2022-10-15T03:10:16;13.95;;;7.25;;
59181;SDS011;45293;44.606;21.176;2022-10-15T03:12:42;12.60;;;7.00;;
59181;SDS011;45293;44.606;21.176;2022-10-15T03:15:08;13.52;;;7.22;;
59181;SDS011;45293;44.606;21.176;2022-10-15T03:17:34;12.93;;;7.20;;
59181;SDS011;45293;44.606;21.176;2022-10-15T03:20:00;14.60;;;7.32;;
59181;SDS011;45293;44.606;21.176;2022-10-15T03:22:26;15.02;;;8.27;;
59181;SDS011;45293;44.606;21.176;2022-10-15T03:24:52;13.13;;;7.43;;
59181;SDS011;45293;44.606;21.176;2022-10-15T03:27:18;17.60;;;7.15;;
59181;SDS011;45293;44.606;21.176;2022-10-15T03:29:44;19.10;;;6.95;;
59181;SDS011;45293;44.606;21.176;2022-10-15T03:32:10;17.75;;;6.93;;
59181;SDS011;45293;44.606;21.176;2022-10-15T03:34:37;17.67;;;6.97;;
59181;SDS011;45293;44.606;21.176;2022-10-15T03:37:03;12.57;;;5.95;;
59181;SDS011;45293;44.606;21.176;2022-10-15T03:39:29;16.73;;;6.70;;
59181;SDS011;45293;44.606;21.176;2022-10-15T03:41:55;14.15;;;6.15;;
59181;SDS011;45293;44.606;21.176;2022-10-15T03:44:21;16.55;;;6.57;;
59181;SDS011;45293;44.606;21.176;2022-10-15T03:46:47;18.88;;;7.05;;
59181;SDS011;45293;44.606;21.176;2022-10-15T03:49:13;12.50;;;7.22;;
59181;SDS011;45293;44.606;21.176;2022-10-15T03:51:39;13.45;;;7.13;;
59181;SDS011;45293;44.606;21.176;2022-10-15T03:54:05;12.95;;;6.75;;
59181;SDS011;45293;44.606;21.176;2022-10-15T03:56:31;13.30;;;7.53;;
59181;SDS011;45293;44.606;21.176;2022-10-15T03:58:57;17.23;;;8.30;;
59181;SDS011;45293;44.606;21.176;2022-10-15T04:01:23;12.77;;;7.45;;
59181;SDS011;45293;44.606;21.176;2022-10-15T04:03:53;16.05;;;8.70;;
59181;SDS011;45293;44.606;21.176;2022-10-15T04:06:19;13.95;;;8.25;;
59181;SDS011;45293;44.606;21.176;2022-10-15T04:08:45;20.58;;;8.02;;
59181;SDS011;45293;44.606;21.176;2022-10-15T04:11:11;14.50;;;8.98;;
59181;SDS011;45293;44.606;21.176;2022-10-15T04:13:37;14.43;;;7.93;;
59181;SDS011;45293;44.606;21.176;2022-10-15T04:16:04;23.15;;;10.20;;
59181;SDS011;45293;44.606;21.176;2022-10-15T04:18:30;21.23;;;9.95;;
59181;SDS011;45293;44.606;21.176;2022-10-15T04:20:59;19.20;;;9.23;;
59181;SDS011;45293;44.606;21.176;2022-10-15T04:23:26;16.77;;;8.95;;
59181;SDS011;45293;44.606;21.176;2022-10-15T04:25:52;16.13;;;8.90;;
59181;SDS011;45293;44.606;21.176;2022-10-15T04:28:18;14.90;;;8.75;;
59181;SDS011;45293;44.606;21.176;2022-10-15T04:30:44;17.08;;;8.25;;
59181;SDS011;45293;44.606;21.176;2022-10-15T04:33:10;14.25;;;8.57;;
59181;SDS011;45293;44.606;21.176;2022-10-15T04:35:37;17.75;;;7.85;;
59181;SDS011;45293;44.606;21.176;2022-10-15T04:38:03;13.02;;;7.93;;
59181;SDS011;45293;44.606;21.176;2022-10-15T04:40:29;15.45;;;8.50;;
59181;SDS011;45293;44.606;21.176;2022-10-15T04:42:55;18.70;;;7.78;;
59181;SDS011;45293;44.606;21.176;2022-10-15T04:45:21;23.52;;;8.35;;
59181;SDS011;45293;44.606;21.176;2022-10-15T04:47:47;24.10;;;8.25;;
59181;SDS011;45293;44.606;21.176;2022-10-15T04:50:14;14.00;;;7.90;;
59181;SDS011;45293;44.606;21.176;2022-10-15T04:52:40;16.35;;;9.52;;
59181;SDS011;45293;44.606;21.176;2022-10-15T04:55:06;18.45;;;9.45;;
59181;SDS011;45293;44.606;21.176;2022-10-15T04:57:32;18.80;;;9.73;;
59181;SDS011;45293;44.606;21.176;2022-10-15T04:59:58;24.60;;;9.75;;
59181;SDS011;45293;44.606;21.176;2022-10-15T05:02:24;27.90;;;10.23;;
59181;SDS011;45293;44.606;21.176;2022-10-15T05:04:50;17.38;;;9.52;;
59181;SDS011;45293;44.606;21.176;2022-10-15T05:07:16;21.40;;;9.88;;
59181;SDS011;45293;44.606;21.176;2022-10-15T05:09:43;21.17;;;10.15;;
59181;SDS011;45293;44.606;21.176;2022-10-15T05:12:09;17.83;;;10.38;;
59181;SDS011;45293;44.606;21.176;2022-10-15T05:14:35;21.10;;;10.98;;
59181;SDS011;45293;44.606;21.176;2022-10-15T05:17:01;16.48;;;10.10;;
59181;SDS011;45293;44.606;21.176;2022-10-15T05:19:27;26.48;;;11.48;;
59181;SDS011;45293;44.606;21.176;2022-10-15T05:21:53;27.65;;;10.50;;
59181;SDS011;45293;44.606;21.176;2022-10-15T05:24:19;21.45;;;10.40;;
59181;SDS011;45293;44.606;21.176;2022-10-15T05:26:45;20.48;;;10.82;;
59181;SDS011;45293;44.606;21.176;2022-10-15T05:29:11;28.33;;;11.45;;
59181;SDS011;45293;44.606;21.176;2022-10-15T05:31:37;26.50;;;11.02;;
59181;SDS011;45293;44.606;21.176;2022-10-15T05:34:07;22.50;;;12.13;;
59181;SDS011;45293;44.606;21.176;2022-10-15T05:36:33;36.22;;;13.82;;
59181;SDS011;45293;44.606;21.176;2022-10-15T05:39:02;20.80;;;11.90;;
59181;SDS011;45293;44.606;21.176;2022-10-15T05:41:28;23.02;;;12.32;;
59181;SDS011;45293;44.606;21.176;2022-10-15T05:43:56;23.05;;;11.40;;
59181;SDS011;45293;44.606;21.176;2022-10-15T05:46:22;32.63;;;13.38;;
59181;SDS011;45293;44.606;21.176;2022-10-15T05:48:52;23.60;;;13.48;;
59181;SDS011;45293;44.606;21.176;2022-10-15T05:51:18;31.60;;;14.48;;
59181;SDS011;45293;44.606;21.176;2022-10-15T05:53:45;37.17;;;14.90;;
59181;SDS011;45293;44.606;21.176;2022-10-15T05:56:11;34.17;;;17.23;;
59181;SDS011;45293;44.606;21.176;2022-10-15T05:58:37;43.05;;;20.55;;
59181;SDS011;45293;44.606;21.176;2022-10-15T06:01:06;42.00;;;24.45;;
59181;SDS011;45293;44.606;21.176;2022-10-15T06:03:32;52.58;;;26.08;;
59181;SDS011;45293;44.606;21.176;2022-10-15T06:05:58;47.53;;;27.23;;
59181;SDS011;45293;44.606;21.176;2022-10-15T06:08:26;31.10;;;18.02;;
59181;SDS011;45293;44.606;21.176;2022-10-15T06:10:52;23.00;;;13.40;;
59181;SDS011;45293;44.606;21.176;2022-10-15T06:13:19;33.53;;;16.67;;
59181;SDS011;45293;44.606;21.176;2022-10-15T06:15:46;30.17;;;16.08;;
59181;SDS011;45293;44.606;21.176;2022-10-15T06:18:12;37.83;;;18.08;;
59181;SDS011;45293;44.606;21.176;2022-10-15T06:20:43;43.67;;;20.50;;
59181;SDS011;45293;44.606;21.176;2022-10-15T06:23:09;56.85;;;28.38;;
59181;SDS011;45293;44.606;21.176;2022-10-15T06:25:37;62.88;;;33.10;;
59181;SDS011;45293;44.606;21.176;2022-10-15T06:28:04;65.95;;;36.80;;
59181;SDS011;45293;44.606;21.176;2022-10-15T06:30:30;74.85;;;41.85;;
59181;SDS011;45293;44.606;21.176;2022-10-15T06:32:56;79.13;;;43.47;;
59181;SDS011;45293;44.606;21.176;2022-10-15T06:35:24;77.50;;;44.63;;
59181;SDS011;45293;44.606;21.176;2022-10-15T06:37:50;78.93;;;46.63;;
59181;SDS011;45293;44.606;21.176;2022-10-15T06:40:17;88.00;;;49.65;;
59181;SDS011;45293;44.606;21.176;2022-10-15T06:42:43;93.10;;;52.90;;
59181;SDS011;45293;44.606;21.176;2022-10-15T06:45:09;83.93;;;52.58;;
59181;SDS011;45293;44.606;21.176;2022-10-15T06:47:36;97.25;;;53.45;;
59181;SDS011;45293;44.606;21.176;2022-10-15T06:50:03;83.57;;;51.95;;
59181;SDS011;45293;44.606;21.176;2022-10-15T06:52:30;80.55;;;48.95;;
59181;SDS011;45293;44.606;21.176;2022-10-15T06:54:56;84.13;;;48.20;;
59181;SDS011;45293;44.606;21.176;2022-10-15T06:57:22;85.93;;;46.45;;
59181;SDS011;45293;44.606;21.176;2022-10-15T06:59:50;77.25;;;45.42;;
59181;SDS011;45293;44.606;21.176;2022-10-15T07:02:16;72.22;;;39.72;;
59181;SDS011;45293;44.606;21.176;2022-10-15T07:04:43;53.58;;;29.75;;
59181;SDS011;45293;44.606;21.176;2022-10-15T07:07:09;32.10;;;17.85;;
59181;SDS011;45293;44.606;21.176;2022-10-15T07:09:35;19.77;;;11.13;;
59181;SDS011;45293;44.606;21.176;2022-10-15T07:12:02;18.60;;;8.85;;
59181;SDS011;45293;44.606;21.176;2022-10-15T07:14:28;10.07;;;5.57;;
59181;SDS011;45293;44.606;21.176;2022-10-15T07:16:54;14.48;;;6.68;;
59181;SDS011;45293;44.606;21.176;2022-10-15T07:19:20;10.85;;;5.85;;
59181;SDS011;45293;44.606;21.176;2022-10-15T07:21:47;7.63;;;5.22;;
59181;SDS011;45293;44.606;21.176;2022-10-15T07:24:13;9.98;;;3.90;;
59181;SDS011;45293;44.606;21.176;2022-10-15T07:26:39;14.23;;;4.30;;
59181;SDS011;45293;44.606;21.176;2022-10-15T07:29:05;8.02;;;3.78;;
59181;SDS011;45293;44.606;21.176;2022-10-15T07:31:31;6.70;;;3.60;;
59181;SDS011;45293;44.606;21.176;2022-10-15T07:33:57;6.03;;;3.47;;
59181;SDS011;45293;44.606;21.176;2022-10-15T07:36:24;4.50;;;3.30;;
59181;SDS011;45293;44.606;21.176;2022-10-15T07:38:50;5.40;;;2.70;;
59181;SDS011;45293;44.606;21.176;2022-10-15T07:41:16;5.25;;;3.72;;
59181;SDS011;45293;44.606;21.176;2022-10-15T07:43:42;5.88;;;3.25;;
59181;SDS011;45293;44.606;21.176;2022-10-15T07:46:09;6.90;;;2.92;;
59181;SDS011;45293;44.606;21.176;2022-10-15T07:48:35;6.78;;;3.10;;
59181;SDS011;45293;44.606;21.176;2022-10-15T07:51:04;9.60;;;3.13;;
59181;SDS011;45293;44.606;21.176;2022-10-15T07:53:31;7.90;;;3.10;;
59181;SDS011;45293;44.606;21.176;2022-10-15T07:56:04;5.38;;;2.85;;
59181;SDS011;45293;44.606;21.176;2022-10-15T07:58:32;7.00;;;2.78;;
59181;SDS011;45293;44.606;21.176;2022-10-15T08:01:02;5.85;;;2.45;;
59181;SDS011;45293;44.606;21.176;2022-10-15T08:03:28;7.10;;;2.80;;
59181;SDS011;45293;44.606;21.176;2022-10-15T08:05:54;8.25;;;3.00;;
59181;SDS011;45293;44.606;21.176;2022-10-15T08:08:21;4.78;;;2.63;;
59181;SDS011;45293;44.606;21.176;2022-10-15T08:10:47;6.25;;;2.90;;
59181;SDS011;45293;44.606;21.176;2022-10-15T08:13:13;8.90;;;2.60;;
59181;SDS011;45293;44.606;21.176;2022-10-15T08:15:40;8.75;;;2.90;;
59181;SDS011;45293;44.606;21.176;2022-10-15T08:18:06;4.68;;;2.58;;
59181;SDS011;45293;44.606;21.176;2022-10-15T08:20:34;6.22;;;3.17;;
59181;SDS011;45293;44.606;21.176;2022-10-15T08:23:00;4.85;;;2.42;;
59181;SDS011;45293;44.606;21.176;2022-10-15T08:25:27;6.75;;;3.78;;
59181;SDS011;45293;44.606;21.176;2022-10-15T08:27:53;7.13;;;2.58;;
59181;SDS011;45293;44.606;21.176;2022-10-15T08:30:20;4.72;;;2.53;;
59181;SDS011;45293;44.606;21.176;2022-10-15T08:32:46;12.05;;;2.40;;
59181;SDS011;45293;44.606;21.176;2022-10-15T08:35:12;7.00;;;2.83;;
59181;SDS011;45293;44.606;21.176;2022-10-15T08:37:38;4.75;;;2.88;;
59181;SDS011;45293;44.606;21.176;2022-10-15T08:40:04;9.65;;;2.78;;
59181;SDS011;45293;44.606;21.176;2022-10-15T08:42:38;4.72;;;2.20;;
59181;SDS011;45293;44.606;21.176;2022-10-15T08:45:06;5.07;;;2.60;;
59181;SDS011;45293;44.606;21.176;2022-10-15T08:47:42;4.88;;;2.17;;
59181;SDS011;45293;44.606;21.176;2022-10-15T08:53:02;3.40;;;1.88;;
59181;SDS011;45293;44.606;21.176;2022-10-15T08:55:32;5.68;;;2.28;;
59181;SDS011;45293;44.606;21.176;2022-10-15T08:58:02;3.75;;;2.35;;
